sensor_id;sensor_type;location;lat;lon;timestamp;P1;durP1;ratioP1;P2;durP2;ratioP2
19679;SDS011;9989;48.962;9.182;2023-03-05T00:02:21;43.53;;;20.77;;
19679;SDS011;9989;48.962;9.182;2023-03-05T00:04:46;40.97;;;19.63;;
19679;SDS011;9989;48.962;9.182;2023-03-05T00:07:12;38.67;;;17.87;;
19679;SDS011;9989;48.962;9.182;2023-03-05T00:09:38;40.27;;;18.63;;
19679;SDS011;9989;48.962;9.182;2023-03-05T00:12:04;41.00;;;19.63;;
19679;SDS011;9989;48.962;9.182;2023-03-05T00:14:30;40.13;;;20.60;;
19679;SDS011;9989;48.962;9.182;2023-03-05T00:16:56;38.07;;;18.33;;
19679;SDS011;9989;48.962;9.182;2023-03-05T00:19:21;39.20;;;18.13;;
19679;SDS011;9989;48.962;9.182;2023-03-05T00:21:47;42.47;;;17.40;;
19679;SDS011;9989;48.962;9.182;2023-03-05T00:24:14;36.63;;;17.37;;
19679;SDS011;9989;48.962;9.182;2023-03-05T00:26:42;36.30;;;17.23;;
19679;SDS011;9989;48.962;9.182;2023-03-05T00:29:10;40.00;;;18.83;;
19679;SDS011;9989;48.962;9.182;2023-03-05T00:31:42;34.47;;;16.73;;
19679;SDS011;9989;48.962;9.182;2023-03-05T00:34:09;35.23;;;16.07;;
19679;SDS011;9989;48.962;9.182;2023-03-05T00:36:40;36.53;;;17.13;;
19679;SDS011;9989;48.962;9.182;2023-03-05T00:39:08;38.47;;;17.13;;
19679;SDS011;9989;48.962;9.182;2023-03-05T00:41:34;37.83;;;17.13;;
19679;SDS011;9989;48.962;9.182;2023-03-05T00:43:59;37.00;;;17.83;;
19679;SDS011;9989;48.962;9.182;2023-03-05T00:46:25;45.07;;;16.97;;
19679;SDS011;9989;48.962;9.182;2023-03-05T00:48:51;33.73;;;16.37;;
19679;SDS011;9989;48.962;9.182;2023-03-05T00:51:18;48.27;;;17.53;;
19679;SDS011;9989;48.962;9.182;2023-03-05T00:53:44;32.40;;;15.43;;
19679;SDS011;9989;48.962;9.182;2023-03-05T00:56:10;37.87;;;16.43;;
19679;SDS011;9989;48.962;9.182;2023-03-05T00:58:36;36.90;;;16.43;;
19679;SDS011;9989;48.962;9.182;2023-03-05T01:01:02;35.23;;;15.47;;
19679;SDS011;9989;48.962;9.182;2023-03-05T01:03:29;38.03;;;17.10;;
19679;SDS011;9989;48.962;9.182;2023-03-05T01:05:55;36.47;;;16.17;;
19679;SDS011;9989;48.962;9.182;2023-03-05T01:08:21;34.57;;;15.83;;
19679;SDS011;9989;48.962;9.182;2023-03-05T01:10:47;33.03;;;16.27;;
19679;SDS011;9989;48.962;9.182;2023-03-05T01:13:13;39.20;;;16.80;;
19679;SDS011;9989;48.962;9.182;2023-03-05T01:15:39;35.60;;;18.47;;
19679;SDS011;9989;48.962;9.182;2023-03-05T01:18:05;37.57;;;16.90;;
19679;SDS011;9989;48.962;9.182;2023-03-05T01:20:30;36.23;;;16.37;;
19679;SDS011;9989;48.962;9.182;2023-03-05T01:22:56;42.07;;;17.20;;
19679;SDS011;9989;48.962;9.182;2023-03-05T01:25:24;38.00;;;16.97;;
19679;SDS011;9989;48.962;9.182;2023-03-05T01:27:50;40.10;;;16.47;;
19679;SDS011;9989;48.962;9.182;2023-03-05T01:30:16;36.70;;;16.43;;
19679;SDS011;9989;48.962;9.182;2023-03-05T01:32:42;38.77;;;15.57;;
19679;SDS011;9989;48.962;9.182;2023-03-05T01:35:09;36.80;;;14.83;;
19679;SDS011;9989;48.962;9.182;2023-03-05T01:37:40;35.10;;;15.50;;
19679;SDS011;9989;48.962;9.182;2023-03-05T01:40:05;36.43;;;15.70;;
19679;SDS011;9989;48.962;9.182;2023-03-05T01:42:32;36.20;;;14.83;;
19679;SDS011;9989;48.962;9.182;2023-03-05T01:45:11;37.10;;;15.07;;
19679;SDS011;9989;48.962;9.182;2023-03-05T01:47:38;34.20;;;15.03;;
19679;SDS011;9989;48.962;9.182;2023-03-05T01:50:05;38.10;;;15.60;;
19679;SDS011;9989;48.962;9.182;2023-03-05T01:52:34;36.97;;;15.93;;
19679;SDS011;9989;48.962;9.182;2023-03-05T01:55:23;37.50;;;15.63;;
19679;SDS011;9989;48.962;9.182;2023-03-05T01:57:51;35.87;;;15.20;;
19679;SDS011;9989;48.962;9.182;2023-03-05T02:00:22;38.40;;;15.73;;
19679;SDS011;9989;48.962;9.182;2023-03-05T02:02:51;37.23;;;16.70;;
19679;SDS011;9989;48.962;9.182;2023-03-05T02:05:19;38.50;;;17.77;;
19679;SDS011;9989;48.962;9.182;2023-03-05T02:07:57;36.27;;;17.80;;
19679;SDS011;9989;48.962;9.182;2023-03-05T02:10:26;39.00;;;17.60;;
19679;SDS011;9989;48.962;9.182;2023-03-05T02:12:58;34.87;;;16.43;;
19679;SDS011;9989;48.962;9.182;2023-03-05T02:15:26;38.50;;;17.17;;
19679;SDS011;9989;48.962;9.182;2023-03-05T02:17:53;34.70;;;17.33;;
19679;SDS011;9989;48.962;9.182;2023-03-05T02:20:20;39.23;;;17.23;;
19679;SDS011;9989;48.962;9.182;2023-03-05T02:22:47;35.27;;;16.23;;
19679;SDS011;9989;48.962;9.182;2023-03-05T02:30:18;32.33;;;14.67;;
19679;SDS011;9989;48.962;9.182;2023-03-05T02:32:44;33.43;;;14.53;;
19679;SDS011;9989;48.962;9.182;2023-03-05T02:35:09;40.27;;;17.27;;
19679;SDS011;9989;48.962;9.182;2023-03-05T02:37:35;35.77;;;14.50;;
19679;SDS011;9989;48.962;9.182;2023-03-05T02:40:01;31.63;;;14.13;;
19679;SDS011;9989;48.962;9.182;2023-03-05T02:42:27;29.80;;;14.47;;
19679;SDS011;9989;48.962;9.182;2023-03-05T02:44:54;31.40;;;13.83;;
19679;SDS011;9989;48.962;9.182;2023-03-05T02:47:20;33.93;;;14.77;;
19679;SDS011;9989;48.962;9.182;2023-03-05T02:49:45;37.80;;;14.63;;
19679;SDS011;9989;48.962;9.182;2023-03-05T02:52:11;33.70;;;14.57;;
19679;SDS011;9989;48.962;9.182;2023-03-05T02:54:37;33.97;;;14.90;;
19679;SDS011;9989;48.962;9.182;2023-03-05T02:57:02;32.50;;;13.63;;
19679;SDS011;9989;48.962;9.182;2023-03-05T02:59:28;31.57;;;13.13;;
19679;SDS011;9989;48.962;9.182;2023-03-05T03:01:53;30.83;;;13.10;;
19679;SDS011;9989;48.962;9.182;2023-03-05T03:04:19;28.37;;;13.83;;
19679;SDS011;9989;48.962;9.182;2023-03-05T03:06:44;33.50;;;13.63;;
19679;SDS011;9989;48.962;9.182;2023-03-05T03:09:10;30.47;;;13.67;;
19679;SDS011;9989;48.962;9.182;2023-03-05T03:11:35;34.97;;;14.70;;
19679;SDS011;9989;48.962;9.182;2023-03-05T03:14:01;29.83;;;12.37;;
19679;SDS011;9989;48.962;9.182;2023-03-05T03:16:27;30.17;;;12.63;;
19679;SDS011;9989;48.962;9.182;2023-03-05T03:18:52;29.33;;;12.50;;
19679;SDS011;9989;48.962;9.182;2023-03-05T03:21:20;32.57;;;12.43;;
19679;SDS011;9989;48.962;9.182;2023-03-05T03:23:50;27.83;;;12.40;;
19679;SDS011;9989;48.962;9.182;2023-03-05T03:26:17;31.27;;;11.70;;
19679;SDS011;9989;48.962;9.182;2023-03-05T03:28:42;29.07;;;11.67;;
19679;SDS011;9989;48.962;9.182;2023-03-05T03:31:08;23.87;;;10.33;;
19679;SDS011;9989;48.962;9.182;2023-03-05T03:33:34;27.80;;;11.27;;
19679;SDS011;9989;48.962;9.182;2023-03-05T03:36:00;31.60;;;11.83;;
19679;SDS011;9989;48.962;9.182;2023-03-05T03:38:26;25.60;;;10.93;;
19679;SDS011;9989;48.962;9.182;2023-03-05T03:40:51;28.83;;;11.80;;
19679;SDS011;9989;48.962;9.182;2023-03-05T03:43:17;28.60;;;11.57;;
19679;SDS011;9989;48.962;9.182;2023-03-05T03:45:43;32.13;;;11.40;;
19679;SDS011;9989;48.962;9.182;2023-03-05T03:48:09;31.60;;;11.70;;
19679;SDS011;9989;48.962;9.182;2023-03-05T03:50:39;27.30;;;11.23;;
19679;SDS011;9989;48.962;9.182;2023-03-05T03:53:05;28.67;;;10.67;;
19679;SDS011;9989;48.962;9.182;2023-03-05T03:55:32;29.17;;;11.53;;
19679;SDS011;9989;48.962;9.182;2023-03-05T03:57:58;25.63;;;10.13;;
19679;SDS011;9989;48.962;9.182;2023-03-05T04:00:23;30.57;;;10.57;;
19679;SDS011;9989;48.962;9.182;2023-03-05T04:02:49;25.70;;;10.10;;
19679;SDS011;9989;48.962;9.182;2023-03-05T04:05:14;29.70;;;11.83;;
19679;SDS011;9989;48.962;9.182;2023-03-05T04:07:40;27.30;;;10.40;;
19679;SDS011;9989;48.962;9.182;2023-03-05T04:10:06;28.43;;;11.00;;
19679;SDS011;9989;48.962;9.182;2023-03-05T04:12:32;25.87;;;9.90;;
19679;SDS011;9989;48.962;9.182;2023-03-05T04:14:58;29.70;;;11.60;;
19679;SDS011;9989;48.962;9.182;2023-03-05T04:17:23;25.47;;;10.60;;
19679;SDS011;9989;48.962;9.182;2023-03-05T04:19:49;25.27;;;10.10;;
19679;SDS011;9989;48.962;9.182;2023-03-05T04:22:15;29.50;;;11.20;;
19679;SDS011;9989;48.962;9.182;2023-03-05T04:24:42;26.30;;;10.03;;
19679;SDS011;9989;48.962;9.182;2023-03-05T04:27:08;25.77;;;9.37;;
19679;SDS011;9989;48.962;9.182;2023-03-05T04:29:34;30.33;;;11.03;;
19679;SDS011;9989;48.962;9.182;2023-03-05T04:32:03;25.90;;;10.83;;
19679;SDS011;9989;48.962;9.182;2023-03-05T04:34:29;27.97;;;10.83;;
19679;SDS011;9989;48.962;9.182;2023-03-05T04:36:54;27.00;;;10.33;;
19679;SDS011;9989;48.962;9.182;2023-03-05T04:39:20;27.43;;;11.27;;
19679;SDS011;9989;48.962;9.182;2023-03-05T04:41:46;24.60;;;8.97;;
19679;SDS011;9989;48.962;9.182;2023-03-05T04:44:12;27.97;;;10.23;;
19679;SDS011;9989;48.962;9.182;2023-03-05T04:46:38;27.03;;;10.87;;
19679;SDS011;9989;48.962;9.182;2023-03-05T04:49:04;29.57;;;11.03;;
19679;SDS011;9989;48.962;9.182;2023-03-05T04:51:29;28.07;;;11.17;;
19679;SDS011;9989;48.962;9.182;2023-03-05T04:53:55;33.07;;;11.43;;
19679;SDS011;9989;48.962;9.182;2023-03-05T04:56:20;29.23;;;10.27;;
19679;SDS011;9989;48.962;9.182;2023-03-05T04:58:46;31.97;;;11.10;;
19679;SDS011;9989;48.962;9.182;2023-03-05T05:01:12;32.70;;;11.53;;
19679;SDS011;9989;48.962;9.182;2023-03-05T05:03:37;24.90;;;10.13;;
19679;SDS011;9989;48.962;9.182;2023-03-05T05:06:03;26.83;;;9.97;;
19679;SDS011;9989;48.962;9.182;2023-03-05T05:08:29;24.30;;;9.73;;
19679;SDS011;9989;48.962;9.182;2023-03-05T05:11:02;28.07;;;10.63;;
19679;SDS011;9989;48.962;9.182;2023-03-05T05:13:30;23.43;;;10.30;;
19679;SDS011;9989;48.962;9.182;2023-03-05T05:15:56;24.10;;;10.30;;
19679;SDS011;9989;48.962;9.182;2023-03-05T05:18:22;28.87;;;10.80;;
19679;SDS011;9989;48.962;9.182;2023-03-05T05:20:48;28.60;;;11.23;;
19679;SDS011;9989;48.962;9.182;2023-03-05T05:23:14;30.47;;;9.97;;
19679;SDS011;9989;48.962;9.182;2023-03-05T05:25:40;29.93;;;11.33;;
19679;SDS011;9989;48.962;9.182;2023-03-05T05:28:07;26.70;;;11.50;;
19679;SDS011;9989;48.962;9.182;2023-03-05T05:30:33;25.03;;;10.43;;
19679;SDS011;9989;48.962;9.182;2023-03-05T05:32:59;30.20;;;10.73;;
19679;SDS011;9989;48.962;9.182;2023-03-05T05:35:25;28.33;;;10.80;;
19679;SDS011;9989;48.962;9.182;2023-03-05T05:37:50;26.33;;;10.60;;
19679;SDS011;9989;48.962;9.182;2023-03-05T05:40:16;27.10;;;10.43;;
19679;SDS011;9989;48.962;9.182;2023-03-05T05:42:41;26.27;;;10.63;;
19679;SDS011;9989;48.962;9.182;2023-03-05T05:45:08;31.30;;;10.67;;
19679;SDS011;9989;48.962;9.182;2023-03-05T05:47:34;25.43;;;10.50;;
19679;SDS011;9989;48.962;9.182;2023-03-05T05:50:00;30.93;;;11.80;;
19679;SDS011;9989;48.962;9.182;2023-03-05T05:52:25;27.20;;;10.97;;
19679;SDS011;9989;48.962;9.182;2023-03-05T05:54:51;29.97;;;11.90;;
19679;SDS011;9989;48.962;9.182;2023-03-05T05:57:16;31.70;;;11.27;;
19679;SDS011;9989;48.962;9.182;2023-03-05T05:59:42;27.13;;;10.20;;
19679;SDS011;9989;48.962;9.182;2023-03-05T06:02:08;28.53;;;10.57;;
19679;SDS011;9989;48.962;9.182;2023-03-05T06:04:35;25.90;;;10.47;;
19679;SDS011;9989;48.962;9.182;2023-03-05T06:07:01;25.83;;;9.70;;
19679;SDS011;9989;48.962;9.182;2023-03-05T06:09:27;26.70;;;10.93;;
19679;SDS011;9989;48.962;9.182;2023-03-05T06:11:53;25.80;;;10.67;;
19679;SDS011;9989;48.962;9.182;2023-03-05T06:14:18;24.53;;;9.67;;
19679;SDS011;9989;48.962;9.182;2023-03-05T06:16:44;28.77;;;10.93;;
19679;SDS011;9989;48.962;9.182;2023-03-05T06:19:13;26.63;;;10.70;;
19679;SDS011;9989;48.962;9.182;2023-03-05T06:21:40;27.67;;;11.23;;
19679;SDS011;9989;48.962;9.182;2023-03-05T06:24:07;27.43;;;10.37;;
19679;SDS011;9989;48.962;9.182;2023-03-05T06:26:33;27.63;;;10.47;;
19679;SDS011;9989;48.962;9.182;2023-03-05T06:29:00;27.37;;;11.00;;
19679;SDS011;9989;48.962;9.182;2023-03-05T06:31:26;28.83;;;11.10;;
19679;SDS011;9989;48.962;9.182;2023-03-05T06:33:53;25.47;;;11.17;;
19679;SDS011;9989;48.962;9.182;2023-03-05T06:36:21;25.87;;;10.97;;
19679;SDS011;9989;48.962;9.182;2023-03-05T06:38:48;27.50;;;12.13;;
19679;SDS011;9989;48.962;9.182;2023-03-05T06:41:16;33.80;;;13.60;;
19679;SDS011;9989;48.962;9.182;2023-03-05T06:43:45;29.80;;;12.63;;
19679;SDS011;9989;48.962;9.182;2023-03-05T06:46:19;28.93;;;13.10;;
19679;SDS011;9989;48.962;9.182;2023-03-05T06:48:54;29.93;;;12.20;;
19679;SDS011;9989;48.962;9.182;2023-03-05T06:51:24;30.17;;;12.23;;
19679;SDS011;9989;48.962;9.182;2023-03-05T06:53:58;29.57;;;12.03;;
19679;SDS011;9989;48.962;9.182;2023-03-05T06:56:25;29.73;;;11.63;;
19679;SDS011;9989;48.962;9.182;2023-03-05T06:58:51;29.63;;;10.73;;
19679;SDS011;9989;48.962;9.182;2023-03-05T07:01:17;24.80;;;10.47;;
19679;SDS011;9989;48.962;9.182;2023-03-05T07:03:43;31.30;;;14.70;;
19679;SDS011;9989;48.962;9.182;2023-03-05T07:06:13;36.80;;;16.37;;
19679;SDS011;9989;48.962;9.182;2023-03-05T07:08:39;30.37;;;13.70;;
19679;SDS011;9989;48.962;9.182;2023-03-05T07:11:24;29.07;;;12.53;;
19679;SDS011;9989;48.962;9.182;2023-03-05T07:13:49;28.33;;;11.77;;
19679;SDS011;9989;48.962;9.182;2023-03-05T07:16:16;27.57;;;11.20;;
19679;SDS011;9989;48.962;9.182;2023-03-05T07:18:44;27.10;;;11.57;;
19679;SDS011;9989;48.962;9.182;2023-03-05T07:21:10;24.43;;;11.23;;
19679;SDS011;9989;48.962;9.182;2023-03-05T07:23:43;28.03;;;11.73;;
19679;SDS011;9989;48.962;9.182;2023-03-05T07:26:09;28.67;;;12.87;;
19679;SDS011;9989;48.962;9.182;2023-03-05T07:28:35;30.33;;;11.97;;
19679;SDS011;9989;48.962;9.182;2023-03-05T07:31:03;27.57;;;10.87;;
19679;SDS011;9989;48.962;9.182;2023-03-05T07:33:31;27.77;;;12.00;;
19679;SDS011;9989;48.962;9.182;2023-03-05T07:35:57;30.57;;;11.50;;
19679;SDS011;9989;48.962;9.182;2023-03-05T07:38:25;32.10;;;13.00;;
19679;SDS011;9989;48.962;9.182;2023-03-05T07:40:51;26.37;;;11.60;;
19679;SDS011;9989;48.962;9.182;2023-03-05T07:43:16;26.77;;;11.43;;
19679;SDS011;9989;48.962;9.182;2023-03-05T07:45:43;27.70;;;11.03;;
19679;SDS011;9989;48.962;9.182;2023-03-05T07:48:13;30.20;;;13.03;;
19679;SDS011;9989;48.962;9.182;2023-03-05T07:50:40;28.70;;;13.30;;
19679;SDS011;9989;48.962;9.182;2023-03-05T07:53:06;24.33;;;11.10;;
19679;SDS011;9989;48.962;9.182;2023-03-05T07:55:33;29.93;;;11.67;;
19679;SDS011;9989;48.962;9.182;2023-03-05T07:57:59;29.23;;;12.53;;
19679;SDS011;9989;48.962;9.182;2023-03-05T08:00:24;26.90;;;11.67;;
19679;SDS011;9989;48.962;9.182;2023-03-05T08:02:50;30.20;;;12.83;;
19679;SDS011;9989;48.962;9.182;2023-03-05T08:05:16;29.30;;;13.70;;
19679;SDS011;9989;48.962;9.182;2023-03-05T08:07:42;30.87;;;14.47;;
19679;SDS011;9989;48.962;9.182;2023-03-05T08:10:07;34.27;;;15.37;;
19679;SDS011;9989;48.962;9.182;2023-03-05T08:12:34;34.50;;;14.77;;
19679;SDS011;9989;48.962;9.182;2023-03-05T08:14:59;36.70;;;15.40;;
19679;SDS011;9989;48.962;9.182;2023-03-05T08:17:25;34.23;;;14.23;;
19679;SDS011;9989;48.962;9.182;2023-03-05T08:19:51;30.40;;;13.90;;
19679;SDS011;9989;48.962;9.182;2023-03-05T08:22:18;35.10;;;15.07;;
19679;SDS011;9989;48.962;9.182;2023-03-05T08:24:44;34.40;;;14.83;;
19679;SDS011;9989;48.962;9.182;2023-03-05T08:27:10;28.47;;;13.47;;
19679;SDS011;9989;48.962;9.182;2023-03-05T08:29:35;30.97;;;12.80;;
19679;SDS011;9989;48.962;9.182;2023-03-05T08:32:01;34.07;;;13.97;;
19679;SDS011;9989;48.962;9.182;2023-03-05T08:34:26;28.20;;;13.27;;
19679;SDS011;9989;48.962;9.182;2023-03-05T08:36:52;28.90;;;12.17;;
19679;SDS011;9989;48.962;9.182;2023-03-05T08:39:18;29.93;;;12.40;;
19679;SDS011;9989;48.962;9.182;2023-03-05T08:41:43;31.17;;;12.80;;
19679;SDS011;9989;48.962;9.182;2023-03-05T08:44:09;35.03;;;14.73;;
19679;SDS011;9989;48.962;9.182;2023-03-05T08:46:35;34.17;;;13.57;;
19679;SDS011;9989;48.962;9.182;2023-03-05T08:49:02;27.57;;;12.80;;
19679;SDS011;9989;48.962;9.182;2023-03-05T08:51:28;33.57;;;14.83;;
19679;SDS011;9989;48.962;9.182;2023-03-05T08:53:54;35.00;;;15.37;;
19679;SDS011;9989;48.962;9.182;2023-03-05T08:56:22;35.53;;;13.63;;
19679;SDS011;9989;48.962;9.182;2023-03-05T08:58:47;30.67;;;12.70;;
19679;SDS011;9989;48.962;9.182;2023-03-05T09:01:13;31.67;;;14.03;;
19679;SDS011;9989;48.962;9.182;2023-03-05T09:03:39;32.23;;;13.67;;
19679;SDS011;9989;48.962;9.182;2023-03-05T09:06:07;32.80;;;12.73;;
19679;SDS011;9989;48.962;9.182;2023-03-05T09:08:33;29.33;;;13.77;;
19679;SDS011;9989;48.962;9.182;2023-03-05T09:11:00;29.10;;;12.93;;
19679;SDS011;9989;48.962;9.182;2023-03-05T09:13:27;31.23;;;13.33;;
19679;SDS011;9989;48.962;9.182;2023-03-05T09:15:56;32.53;;;13.90;;
19679;SDS011;9989;48.962;9.182;2023-03-05T09:18:30;31.33;;;12.60;;
19679;SDS011;9989;48.962;9.182;2023-03-05T09:20:56;33.63;;;14.00;;
19679;SDS011;9989;48.962;9.182;2023-03-05T09:23:22;33.97;;;14.07;;
19679;SDS011;9989;48.962;9.182;2023-03-05T09:25:48;33.00;;;13.87;;
19679;SDS011;9989;48.962;9.182;2023-03-05T09:28:14;31.57;;;12.80;;
19679;SDS011;9989;48.962;9.182;2023-03-05T09:30:40;30.27;;;13.70;;
19679;SDS011;9989;48.962;9.182;2023-03-05T09:33:06;30.17;;;13.20;;
19679;SDS011;9989;48.962;9.182;2023-03-05T09:35:35;33.63;;;14.37;;
19679;SDS011;9989;48.962;9.182;2023-03-05T09:38:03;28.07;;;13.30;;
19679;SDS011;9989;48.962;9.182;2023-03-05T09:40:30;27.10;;;12.70;;
19679;SDS011;9989;48.962;9.182;2023-03-05T09:49:19;33.73;;;13.57;;
19679;SDS011;9989;48.962;9.182;2023-03-05T09:52:10;33.60;;;12.83;;
19679;SDS011;9989;48.962;9.182;2023-03-05T09:54:53;35.87;;;13.27;;
19679;SDS011;9989;48.962;9.182;2023-03-05T09:57:25;31.70;;;13.37;;
19679;SDS011;9989;48.962;9.182;2023-03-05T10:00:04;30.10;;;13.17;;
19679;SDS011;9989;48.962;9.182;2023-03-05T10:02:47;28.90;;;12.50;;
19679;SDS011;9989;48.962;9.182;2023-03-05T10:07:59;28.63;;;14.00;;
19679;SDS011;9989;48.962;9.182;2023-03-05T10:11:00;27.40;;;12.53;;
19679;SDS011;9989;48.962;9.182;2023-03-05T10:13:23;33.40;;;14.13;;
19679;SDS011;9989;48.962;9.182;2023-03-05T10:18:45;28.30;;;12.77;;
19679;SDS011;9989;48.962;9.182;2023-03-05T10:21:38;27.73;;;12.83;;
19679;SDS011;9989;48.962;9.182;2023-03-05T10:24:19;28.20;;;12.97;;
19679;SDS011;9989;48.962;9.182;2023-03-05T10:27:14;28.77;;;13.20;;
19679;SDS011;9989;48.962;9.182;2023-03-05T10:40:51;29.90;;;15.03;;
19679;SDS011;9989;48.962;9.182;2023-03-05T10:45:46;32.00;;;16.23;;
19679;SDS011;9989;48.962;9.182;2023-03-05T10:56:24;25.90;;;13.60;;
19679;SDS011;9989;48.962;9.182;2023-03-05T10:58:51;27.00;;;12.77;;
19679;SDS011;9989;48.962;9.182;2023-03-05T11:01:24;24.07;;;12.50;;
19679;SDS011;9989;48.962;9.182;2023-03-05T11:04:04;35.47;;;13.40;;
19679;SDS011;9989;48.962;9.182;2023-03-05T11:14:28;30.23;;;15.13;;
19679;SDS011;9989;48.962;9.182;2023-03-05T11:16:57;28.07;;;13.37;;
19679;SDS011;9989;48.962;9.182;2023-03-05T11:19:24;23.80;;;12.67;;
19679;SDS011;9989;48.962;9.182;2023-03-05T11:22:16;24.23;;;12.40;;
19679;SDS011;9989;48.962;9.182;2023-03-05T11:25:02;26.80;;;13.03;;
19679;SDS011;9989;48.962;9.182;2023-03-05T11:30:26;25.90;;;12.77;;
19679;SDS011;9989;48.962;9.182;2023-03-05T11:35:44;25.63;;;13.20;;
19679;SDS011;9989;48.962;9.182;2023-03-05T11:38:19;30.10;;;14.37;;
19679;SDS011;9989;48.962;9.182;2023-03-05T11:40:48;30.13;;;13.37;;
19679;SDS011;9989;48.962;9.182;2023-03-05T11:43:20;22.17;;;11.73;;
19679;SDS011;9989;48.962;9.182;2023-03-05T11:45:52;25.07;;;12.97;;
19679;SDS011;9989;48.962;9.182;2023-03-05T11:50:55;24.23;;;12.70;;
19679;SDS011;9989;48.962;9.182;2023-03-05T11:53:34;27.67;;;11.57;;
19679;SDS011;9989;48.962;9.182;2023-03-05T11:58:45;28.87;;;13.00;;
19679;SDS011;9989;48.962;9.182;2023-03-05T12:01:20;24.53;;;13.23;;
19679;SDS011;9989;48.962;9.182;2023-03-05T12:03:49;24.23;;;13.30;;
19679;SDS011;9989;48.962;9.182;2023-03-05T12:06:36;23.53;;;12.67;;
19679;SDS011;9989;48.962;9.182;2023-03-05T12:11:49;24.60;;;11.87;;
19679;SDS011;9989;48.962;9.182;2023-03-05T12:14:21;24.67;;;12.53;;
19679;SDS011;9989;48.962;9.182;2023-03-05T12:17:20;30.03;;;12.83;;
19679;SDS011;9989;48.962;9.182;2023-03-05T12:20:01;21.47;;;11.83;;
19679;SDS011;9989;48.962;9.182;2023-03-05T12:22:33;23.00;;;11.53;;
19679;SDS011;9989;48.962;9.182;2023-03-05T12:27:56;18.93;;;10.60;;
19679;SDS011;9989;48.962;9.182;2023-03-05T12:30:51;23.53;;;12.03;;
19679;SDS011;9989;48.962;9.182;2023-03-05T12:38:48;22.73;;;11.40;;
19679;SDS011;9989;48.962;9.182;2023-03-05T12:49:45;22.70;;;12.10;;
19679;SDS011;9989;48.962;9.182;2023-03-05T12:51:52;22.23;;;11.90;;
19679;SDS011;9989;48.962;9.182;2023-03-05T13:02:45;31.43;;;15.70;;
19679;SDS011;9989;48.962;9.182;2023-03-05T13:05:20;28.43;;;13.03;;
19679;SDS011;9989;48.962;9.182;2023-03-05T13:07:51;24.70;;;13.00;;
19679;SDS011;9989;48.962;9.182;2023-03-05T13:10:21;25.93;;;13.43;;
19679;SDS011;9989;48.962;9.182;2023-03-05T13:12:50;26.53;;;14.27;;
19679;SDS011;9989;48.962;9.182;2023-03-05T13:15:17;27.90;;;15.37;;
19679;SDS011;9989;48.962;9.182;2023-03-05T13:17:56;28.90;;;14.13;;
19679;SDS011;9989;48.962;9.182;2023-03-05T13:25:34;23.80;;;13.57;;
19679;SDS011;9989;48.962;9.182;2023-03-05T13:28:10;32.63;;;19.37;;
19679;SDS011;9989;48.962;9.182;2023-03-05T13:30:37;30.23;;;16.13;;
19679;SDS011;9989;48.962;9.182;2023-03-05T13:33:03;28.97;;;16.80;;
19679;SDS011;9989;48.962;9.182;2023-03-05T13:35:33;30.13;;;19.70;;
19679;SDS011;9989;48.962;9.182;2023-03-05T13:37:59;27.87;;;15.90;;
19679;SDS011;9989;48.962;9.182;2023-03-05T13:40:30;28.53;;;14.80;;
19679;SDS011;9989;48.962;9.182;2023-03-05T13:43:09;27.70;;;15.60;;
19679;SDS011;9989;48.962;9.182;2023-03-05T13:45:40;24.33;;;13.53;;
19679;SDS011;9989;48.962;9.182;2023-03-05T13:48:14;28.27;;;12.53;;
19679;SDS011;9989;48.962;9.182;2023-03-05T13:50:43;26.67;;;12.80;;
19679;SDS011;9989;48.962;9.182;2023-03-05T13:53:15;26.80;;;12.67;;
19679;SDS011;9989;48.962;9.182;2023-03-05T13:55:50;29.40;;;14.10;;
19679;SDS011;9989;48.962;9.182;2023-03-05T14:01:21;25.80;;;12.53;;
19679;SDS011;9989;48.962;9.182;2023-03-05T14:03:49;25.20;;;13.93;;
19679;SDS011;9989;48.962;9.182;2023-03-05T14:06:17;23.50;;;12.57;;
19679;SDS011;9989;48.962;9.182;2023-03-05T14:08:52;26.20;;;12.13;;
19679;SDS011;9989;48.962;9.182;2023-03-05T14:11:21;27.87;;;13.03;;
19679;SDS011;9989;48.962;9.182;2023-03-05T14:13:47;29.93;;;13.97;;
19679;SDS011;9989;48.962;9.182;2023-03-05T14:16:26;27.17;;;13.23;;
19679;SDS011;9989;48.962;9.182;2023-03-05T14:18:57;27.20;;;12.53;;
19679;SDS011;9989;48.962;9.182;2023-03-05T14:21:25;22.67;;;11.83;;
19679;SDS011;9989;48.962;9.182;2023-03-05T14:24:12;23.70;;;12.77;;
19679;SDS011;9989;48.962;9.182;2023-03-05T14:26:50;25.13;;;12.57;;
19679;SDS011;9989;48.962;9.182;2023-03-05T14:29:18;25.37;;;13.50;;
19679;SDS011;9989;48.962;9.182;2023-03-05T14:34:18;24.03;;;12.10;;
19679;SDS011;9989;48.962;9.182;2023-03-05T14:36:47;23.90;;;12.13;;
19679;SDS011;9989;48.962;9.182;2023-03-05T14:39:27;24.50;;;12.40;;
19679;SDS011;9989;48.962;9.182;2023-03-05T14:41:54;24.03;;;11.63;;
19679;SDS011;9989;48.962;9.182;2023-03-05T14:44:36;30.03;;;12.50;;
19679;SDS011;9989;48.962;9.182;2023-03-05T14:47:01;24.73;;;11.43;;
19679;SDS011;9989;48.962;9.182;2023-03-05T14:49:27;22.67;;;11.40;;
19679;SDS011;9989;48.962;9.182;2023-03-05T14:51:52;20.87;;;10.47;;
19679;SDS011;9989;48.962;9.182;2023-03-05T14:54:21;22.97;;;11.80;;
19679;SDS011;9989;48.962;9.182;2023-03-05T14:56:50;23.10;;;10.03;;
19679;SDS011;9989;48.962;9.182;2023-03-05T14:59:16;22.93;;;10.37;;
19679;SDS011;9989;48.962;9.182;2023-03-05T15:01:43;17.10;;;8.67;;
19679;SDS011;9989;48.962;9.182;2023-03-05T15:04:11;17.83;;;8.77;;
19679;SDS011;9989;48.962;9.182;2023-03-05T15:06:39;21.40;;;9.37;;
19679;SDS011;9989;48.962;9.182;2023-03-05T15:09:05;19.83;;;9.47;;
19679;SDS011;9989;48.962;9.182;2023-03-05T15:11:31;19.30;;;8.57;;
19679;SDS011;9989;48.962;9.182;2023-03-05T15:13:57;17.53;;;8.23;;
19679;SDS011;9989;48.962;9.182;2023-03-05T15:16:23;18.03;;;8.33;;
19679;SDS011;9989;48.962;9.182;2023-03-05T15:18:49;17.70;;;8.50;;
19679;SDS011;9989;48.962;9.182;2023-03-05T15:21:14;17.90;;;8.23;;
19679;SDS011;9989;48.962;9.182;2023-03-05T15:23:40;18.47;;;8.67;;
19679;SDS011;9989;48.962;9.182;2023-03-05T15:26:10;18.07;;;8.73;;
19679;SDS011;9989;48.962;9.182;2023-03-05T15:28:37;16.77;;;8.37;;
19679;SDS011;9989;48.962;9.182;2023-03-05T15:31:04;15.70;;;7.73;;
19679;SDS011;9989;48.962;9.182;2023-03-05T15:33:31;18.93;;;8.17;;
19679;SDS011;9989;48.962;9.182;2023-03-05T15:35:57;18.83;;;8.90;;
19679;SDS011;9989;48.962;9.182;2023-03-05T15:38:23;17.73;;;8.13;;
19679;SDS011;9989;48.962;9.182;2023-03-05T15:40:49;22.60;;;10.37;;
19679;SDS011;9989;48.962;9.182;2023-03-05T15:43:15;17.50;;;8.97;;
19679;SDS011;9989;48.962;9.182;2023-03-05T15:45:42;18.27;;;9.40;;
19679;SDS011;9989;48.962;9.182;2023-03-05T15:48:08;20.83;;;8.67;;
19679;SDS011;9989;48.962;9.182;2023-03-05T15:50:33;21.33;;;9.23;;
19679;SDS011;9989;48.962;9.182;2023-03-05T15:53:02;18.07;;;8.17;;
19679;SDS011;9989;48.962;9.182;2023-03-05T15:55:28;18.13;;;8.67;;
19679;SDS011;9989;48.962;9.182;2023-03-05T15:57:56;20.63;;;9.50;;
19679;SDS011;9989;48.962;9.182;2023-03-05T16:00:23;20.10;;;9.00;;
19679;SDS011;9989;48.962;9.182;2023-03-05T16:02:52;20.17;;;9.23;;
19679;SDS011;9989;48.962;9.182;2023-03-05T16:05:18;20.03;;;10.20;;
19679;SDS011;9989;48.962;9.182;2023-03-05T16:07:43;23.00;;;10.17;;
19679;SDS011;9989;48.962;9.182;2023-03-05T16:10:11;20.83;;;10.40;;
19679;SDS011;9989;48.962;9.182;2023-03-05T16:12:41;25.00;;;10.37;;
19679;SDS011;9989;48.962;9.182;2023-03-05T16:15:12;21.50;;;9.63;;
19679;SDS011;9989;48.962;9.182;2023-03-05T16:17:40;21.70;;;11.57;;
19679;SDS011;9989;48.962;9.182;2023-03-05T16:20:08;23.87;;;12.10;;